Time;durP1;ratioP1;P1;durP2;ratioP2;P2;SDS_P1;SDS_P2;PMS_P1;PMS_P2;Temp;Humidity;BMP_temperature;BMP_pressure;BME280_temperature;BME280_humidity;BME280_pressure;Samples;Min_cycle;Max_cycle;Signal;HPM_P1;HPM_P2
2021/07/31 00:00:27;;;;;;;5.95;1.90;;;17.60;91.90;;;;;;5048623;28;20036;-71
2021/07/31 00:02:55;;;;;;;5.45;1.95;;;17.50;91.90;;;;;;5048826;28;20024;-71
2021/07/31 00:05:23;;;;;;;5.95;2.20;;;17.50;92.40;;;;;;5049261;28;20029;-71
2021/07/31 00:07:49;;;;;;;4.53;2.13;;;17.40;93.30;;;;;;5049289;28;20036;-71
2021/07/31 00:10:23;;;;;;;6.80;2.22;;;17.30;92.70;;;;;;5048907;28;20037;-73
2021/07/31 00:12:49;;;;;;;6.72;1.90;;;17.30;92.60;;;;;;5013596;28;20025;-73
2021/07/31 00:15:15;;;;;;;4.97;1.80;;;17.30;93.00;;;;;;5027221;28;20051;-72
2021/07/31 00:17:40;;;;;;;5.40;2.00;;;17.20;93.00;;;;;;5027429;28;20553;-71
2021/07/31 00:20:07;;;;;;;6.38;2.00;;;17.10;93.40;;;;;;5047717;28;20033;-72
2021/07/31 00:22:39;;;;;;;5.15;1.90;;;17.10;93.00;;;;;;5048267;28;20104;-72
2021/07/31 00:25:05;;;;;;;4.60;1.90;;;17.10;94.20;;;;;;5047551;28;20033;-71
2021/07/31 00:27:31;;;;;;;6.10;1.90;;;17.10;93.40;;;;;;5046417;28;20060;-71
2021/07/31 00:29:58;;;;;;;5.45;2.00;;;17.00;93.70;;;;;;5030229;28;20112;-71
2021/07/31 00:32:26;;;;;;;4.88;1.85;;;16.90;93.70;;;;;;5047930;28;20029;-71
2021/07/31 00:34:52;;;;;;;5.00;1.95;;;16.90;94.00;;;;;;5048169;28;20037;-72
2021/07/31 00:37:17;;;;;;;5.47;1.98;;;16.80;94.20;;;;;;5047639;28;20033;-72
2021/07/31 00:39:43;;;;;;;5.07;2.00;;;16.80;94.80;;;;;;5046905;28;20346;-71
2021/07/31 00:42:09;;;;;;;6.30;2.00;;;16.80;94.10;;;;;;5029569;28;20044;-71
2021/07/31 00:44:35;;;;;;;4.72;2.05;;;16.70;94.90;;;;;;5049155;28;20012;-71
2021/07/31 00:47:01;;;;;;;5.57;2.08;;;16.70;95.30;;;;;;5028765;28;20033;-71
2021/07/31 00:49:26;;;;;;;4.28;1.98;;;16.60;95.10;;;;;;5030606;28;21909;-71
2021/07/31 00:51:52;;;;;;;6.28;1.98;;;16.60;94.50;;;;;;5029343;28;20029;-71
2021/07/31 00:54:18;;;;;;;4.90;1.90;;;16.50;94.90;;;;;;5062873;28;20067;-72
2021/07/31 00:56:44;;;;;;;6.57;2.30;;;16.40;95.10;;;;;;5062656;28;20056;-72
2021/07/31 00:59:10;;;;;;;6.07;2.20;;;16.40;96.60;;;;;;5046173;28;20139;-71
2021/07/31 01:01:38;;;;;;;4.22;2.05;;;16.30;98.00;;;;;;5047240;28;20117;-71
2021/07/31 01:04:09;;;;;;;7.05;2.33;;;16.30;99.90;;;;;;5030066;28;20056;-71
2021/07/31 01:06:35;;;;;;;5.40;2.30;;;16.20;99.90;;;;;;5003181;28;20048;-72
2021/07/31 01:09:01;;;;;;;5.75;1.90;;;16.20;99.20;;;;;;5029082;28;20727;-71
2021/07/31 01:11:29;;;;;;;4.80;1.92;;;16.20;97.80;;;;;;5033880;28;20052;-71
2021/07/31 01:13:54;;;;;;;5.45;2.03;;;16.10;98.20;;;;;;5047433;28;20025;-71
2021/07/31 01:16:20;;;;;;;5.22;2.00;;;16.10;97.80;;;;;;5062853;28;20372;-71
2021/07/31 01:18:46;;;;;;;5.00;2.00;;;16.10;97.60;;;;;;5011800;28;20028;-71
2021/07/31 01:21:37;;;;;;;5.53;2.20;;;16.00;98.30;;;;;;5062735;28;20100;-71
2021/07/31 01:24:03;;;;;;;4.57;1.90;;;16.00;99.40;;;;;;5046923;28;20032;-71
2021/07/31 01:26:31;;;;;;;5.72;2.00;;;16.00;98.90;;;;;;5046882;28;20028;-71
2021/07/31 01:28:59;;;;;;;4.63;1.95;;;15.90;99.90;;;;;;5029426;28;20319;-71
2021/07/31 01:31:25;;;;;;;5.65;2.20;;;15.80;99.80;;;;;;5046758;28;20033;-72
2021/07/31 01:33:53;;;;;;;4.32;2.00;;;15.80;99.90;;;;;;5047300;28;20083;-71
2021/07/31 01:36:21;;;;;;;6.10;2.03;;;15.80;99.90;;;;;;5047432;28;20029;-71
2021/07/31 01:38:48;;;;;;;5.30;2.20;;;15.70;99.90;;;;;;5047189;28;20036;-71
2021/07/31 01:41:14;;;;;;;6.28;2.20;;;15.70;99.90;;;;;;5047566;28;20037;-71
2021/07/31 01:43:40;;;;;;;5.68;2.15;;;15.60;99.90;;;;;;5028914;28;20040;-72
2021/07/31 01:46:08;;;;;;;4.97;1.95;;;15.60;99.90;;;;;;5029629;28;20033;-71
2021/07/31 01:48:33;;;;;;;5.90;2.38;;;15.60;99.90;;;;;;5062430;28;20143;-72
2021/07/31 01:50:59;;;;;;;6.22;2.10;;;15.50;99.90;;;;;;5047705;28;20494;-71
2021/07/31 01:53:25;;;;;;;4.65;1.95;;;15.50;99.90;;;;;;5047269;28;20036;-72
2021/07/31 01:55:52;;;;;;;6.72;2.50;;;15.50;99.90;;;;;;5047628;28;20037;-71
2021/07/31 01:58:20;;;;;;;6.15;2.20;;;15.40;99.90;;;;;;5047056;28;20045;-71
2021/07/31 02:00:48;;;;;;;5.93;2.20;;;15.40;99.90;;;;;;5046909;28;20037;-71
2021/07/31 02:03:14;;;;;;;6.22;2.22;;;15.40;99.90;;;;;;5046881;28;20032;-71
2021/07/31 02:05:39;;;;;;;6.72;2.10;;;15.40;99.90;;;;;;5045270;28;20040;-71
2021/07/31 02:08:07;;;;;;;5.82;2.63;;;15.40;99.90;;;;;;5047353;28;20024;-72
2021/07/31 02:10:33;;;;;;;5.68;2.47;;;15.30;99.90;;;;;;5045428;28;20064;-71
2021/07/31 02:12:58;;;;;;;7.57;2.22;;;15.40;99.90;;;;;;5045975;28;20163;-71
2021/07/31 02:15:26;;;;;;;6.97;2.17;;;15.40;99.90;;;;;;5047541;28;20443;-71
2021/07/31 02:17:54;;;;;;;4.90;2.30;;;15.40;99.90;;;;;;5061233;28;20383;-71
2021/07/31 02:20:20;;;;;;;8.05;2.13;;;15.50;99.90;;;;;;5045888;28;20028;-71
2021/07/31 02:22:45;;;;;;;4.82;1.80;;;15.50;99.90;;;;;;5046465;28;20029;-71
2021/07/31 02:25:11;;;;;;;5.18;2.25;;;15.50;99.90;;;;;;5045332;28;20025;-71
2021/07/31 02:27:41;;;;;;;5.57;2.13;;;15.60;99.90;;;;;;5062795;28;20075;-72
2021/07/31 02:30:10;;;;;;;6.70;1.95;;;15.60;99.90;;;;;;5047061;28;20047;-72
2021/07/31 02:32:36;;;;;;;6.78;2.13;;;15.60;99.60;;;;;;5045830;28;20059;-71
2021/07/31 02:35:02;;;;;;;6.88;2.00;;;15.70;99.90;;;;;;5046442;28;20108;-71
2021/07/31 02:37:30;;;;;;;8.80;2.13;;;15.70;99.90;;;;;;5046040;28;20044;-72
2021/07/31 02:39:55;;;;;;;5.80;2.00;;;15.70;97.20;;;;;;5046435;28;20041;-73
2021/07/31 02:42:21;;;;;;;4.80;1.88;;;15.80;97.30;;;;;;5046196;28;20040;-71
2021/07/31 02:44:47;;;;;;;7.30;1.70;;;15.90;98.90;;;;;;5029339;28;20037;-71
2021/07/31 02:47:14;;;;;;;6.57;2.20;;;15.90;97.30;;;;;;5046309;28;20025;-71
2021/07/31 02:49:40;;;;;;;6.05;2.00;;;16.00;98.30;;;;;;5046826;28;20167;-71
2021/07/31 02:52:08;;;;;;;6.57;2.00;;;16.00;98.30;;;;;;5045710;28;20107;-71
2021/07/31 02:54:34;;;;;;;6.35;1.95;;;16.00;99.80;;;;;;5045699;28;20629;-71
2021/07/31 02:56:59;;;;;;;7.18;2.08;;;16.00;96.70;;;;;;5046232;28;20037;-71
2021/07/31 02:59:25;;;;;;;5.47;2.20;;;16.00;97.90;;;;;;5046234;28;20056;-71
2021/07/31 03:01:51;;;;;;;4.68;2.00;;;16.00;99.40;;;;;;5045756;28;20454;-72
2021/07/31 03:04:16;;;;;;;5.50;1.80;;;16.00;97.60;;;;;;4999164;28;20029;-71
2021/07/31 03:06:42;;;;;;;6.03;2.22;;;15.90;99.10;;;;;;5046318;28;20029;-71
2021/07/31 03:09:09;;;;;;;5.45;1.90;;;15.90;98.20;;;;;;5062429;28;20021;-71
2021/07/31 03:11:35;;;;;;;6.75;2.38;;;15.90;99.10;;;;;;5049819;28;20118;-71
2021/07/31 03:14:04;;;;;;;7.55;2.30;;;15.90;99.70;;;;;;5015880;28;20032;-71
2021/07/31 03:16:30;;;;;;;5.68;2.00;;;15.90;99.90;;;;;;5029764;28;20040;-71
2021/07/31 03:18:55;;;;;;;4.70;2.00;;;15.80;99.90;;;;;;5028376;28;20036;-71
2021/07/31 03:21:21;;;;;;;4.50;2.08;;;15.80;99.90;;;;;;5049202;28;20119;-71
2021/07/31 03:23:47;;;;;;;7.18;2.30;;;15.70;99.90;;;;;;5051768;28;20493;-71
2021/07/31 03:26:12;;;;;;;5.50;1.90;;;15.70;99.90;;;;;;5048655;28;20454;-71
2021/07/31 03:28:42;;;;;;;6.45;2.50;;;15.60;99.90;;;;;;5030001;28;20028;-71
2021/07/31 03:31:21;;;;;;;5.28;2.00;;;15.60;99.90;;;;;;5063832;28;20028;-71
2021/07/31 03:33:47;;;;;;;7.63;2.35;;;15.50;99.90;;;;;;5031736;28;20033;-71
2021/07/31 03:36:15;;;;;;;6.20;2.22;;;15.50;99.90;;;;;;5048677;28;20501;-71
2021/07/31 03:38:41;;;;;;;6.63;2.58;;;15.50;99.90;;;;;;5046210;28;20040;-71
2021/07/31 03:41:06;;;;;;;7.22;2.58;;;15.40;99.90;;;;;;5048588;28;20041;-71
2021/07/31 03:43:32;;;;;;;5.47;2.35;;;15.40;99.90;;;;;;5064501;28;20445;-71
2021/07/31 03:46:00;;;;;;;5.50;2.30;;;15.30;99.90;;;;;;5065131;28;20029;-71
2021/07/31 03:48:25;;;;;;;5.30;2.17;;;15.30;99.90;;;;;;5048746;28;20028;-71
2021/07/31 03:50:53;;;;;;;6.05;2.83;;;15.30;99.90;;;;;;5048650;28;20834;-71
2021/07/31 03:53:19;;;;;;;5.20;2.55;;;15.20;99.90;;;;;;5048139;28;20144;-71
2021/07/31 03:55:46;;;;;;;6.95;2.63;;;15.10;99.90;;;;;;5049106;28;20024;-71
2021/07/31 03:58:11;;;;;;;5.82;2.40;;;15.10;99.90;;;;;;5030289;28;20049;-71
2021/07/31 04:00:40;;;;;;;5.38;2.75;;;15.00;99.90;;;;;;5031582;28;20651;-71
2021/07/31 04:03:05;;;;;;;4.90;2.35;;;15.00;99.90;;;;;;5047879;28;20021;-71
2021/07/31 04:05:33;;;;;;;6.82;2.58;;;15.00;99.90;;;;;;5049927;28;20029;-71
2021/07/31 04:07:59;;;;;;;4.93;2.47;;;14.90;99.90;;;;;;5046630;28;20037;-71
2021/07/31 04:10:25;;;;;;;7.80;2.80;;;14.90;99.90;;;;;;5028992;28;20118;-71
2021/07/31 04:12:53;;;;;;;4.32;2.30;;;14.90;99.90;;;;;;5047784;28;20040;-71
2021/07/31 04:15:20;;;;;;;6.40;2.55;;;14.80;99.90;;;;;;5013239;28;20111;-71
2021/07/31 04:17:46;;;;;;;6.57;2.88;;;14.80;99.90;;;;;;5048134;28;20573;-71
2021/07/31 04:20:14;;;;;;;7.72;2.67;;;14.80;99.90;;;;;;5047667;28;20081;-71
2021/07/31 04:22:42;;;;;;;6.63;3.00;;;14.80;99.90;;;;;;5048905;28;20044;-71
2021/07/31 04:25:11;;;;;;;6.32;2.83;;;14.70;99.90;;;;;;5030577;28;20029;-71
2021/07/31 04:27:39;;;;;;;6.00;2.53;;;14.70;99.90;;;;;;5046788;28;20025;-72
2021/07/31 04:30:05;;;;;;;6.22;2.83;;;14.70;99.90;;;;;;5048083;28;20032;-71
2021/07/31 04:32:31;;;;;;;8.27;2.60;;;14.70;99.90;;;;;;5030338;28;20589;-71
2021/07/31 04:34:56;;;;;;;5.13;2.67;;;14.60;99.90;;;;;;5029179;28;20052;-71
2021/07/31 04:37:22;;;;;;;6.20;2.80;;;14.70;99.90;;;;;;5048435;28;20028;-71
2021/07/31 04:39:48;;;;;;;5.72;2.53;;;14.70;99.90;;;;;;5062570;28;20033;-71
2021/07/31 04:42:13;;;;;;;7.05;2.60;;;14.60;99.90;;;;;;5030346;28;20025;-71
2021/07/31 04:44:41;;;;;;;5.75;2.63;;;14.60;99.90;;;;;;5047093;28;20140;-71
2021/07/31 04:47:11;;;;;;;7.97;2.78;;;14.70;99.90;;;;;;5013247;28;20032;-71
2021/07/31 04:49:37;;;;;;;6.65;2.60;;;14.70;99.90;;;;;;5030340;28;20025;-71
2021/07/31 04:52:08;;;;;;;6.15;2.70;;;14.70;99.90;;;;;;5030227;28;20040;-71
2021/07/31 04:54:40;;;;;;;6.93;2.60;;;14.70;99.90;;;;;;5029298;28;20500;-71
2021/07/31 04:57:13;;;;;;;5.93;2.75;;;14.70;99.90;;;;;;5047726;28;20040;-71
2021/07/31 04:59:39;;;;;;;6.93;2.50;;;14.70;99.90;;;;;;5047868;28;21011;-71
2021/07/31 05:02:04;;;;;;;7.03;2.90;;;14.70;99.90;;;;;;5047710;28;20021;-71
2021/07/31 05:04:33;;;;;;;8.10;2.60;;;14.70;99.90;;;;;;5029930;28;20107;-72
2021/07/31 05:06:59;;;;;;;5.55;2.45;;;14.70;99.90;;;;;;5030038;28;20060;-72
2021/07/31 05:09:27;;;;;;;8.60;2.85;;;14.80;99.90;;;;;;5046151;28;20509;-72
2021/07/31 05:11:55;;;;;;;6.60;2.60;;;14.80;99.90;;;;;;5047311;28;20044;-72
2021/07/31 05:14:21;;;;;;;6.68;2.85;;;14.80;99.90;;;;;;5044814;28;20064;-72
2021/07/31 05:16:48;;;;;;;6.40;2.60;;;14.90;99.90;;;;;;5062079;28;20163;-72
2021/07/31 05:19:14;;;;;;;6.25;2.53;;;14.90;99.90;;;;;;5029060;28;20531;-72
2021/07/31 05:21:39;;;;;;;8.15;2.83;;;14.90;99.90;;;;;;5048003;28;20037;-71
2021/07/31 05:24:05;;;;;;;8.43;2.42;;;14.90;99.90;;;;;;5046277;28;20115;-72
2021/07/31 05:26:35;;;;;;;5.50;2.42;;;14.90;99.90;;;;;;5046399;28;20025;-72
2021/07/31 05:29:01;;;;;;;9.45;2.30;;;15.00;99.90;;;;;;5013246;28;20033;-72
2021/07/31 05:31:26;;;;;;;6.65;2.50;;;15.00;99.90;;;;;;5045736;28;20089;-72
2021/07/31 05:33:52;;;;;;;5.72;2.40;;;15.00;99.90;;;;;;5045869;28;20093;-72
2021/07/31 05:36:18;;;;;;;4.85;2.40;;;15.10;99.90;;;;;;5045481;28;20032;-72
2021/07/31 05:38:45;;;;;;;7.35;2.50;;;15.10;99.90;;;;;;5047652;28;20451;-72
2021/07/31 05:41:20;;;;;;;7.20;2.60;;;15.20;99.90;;;;;;5046681;28;20095;-71
2021/07/31 05:43:48;;;;;;;5.97;2.33;;;15.20;99.90;;;;;;5028361;28;20033;-72
2021/07/31 05:46:22;;;;;;;8.35;2.55;;;15.20;99.90;;;;;;5062225;28;20108;-72
2021/07/31 05:48:49;;;;;;;8.13;2.60;;;15.30;99.90;;;;;;5030009;28;20025;-72
2021/07/31 05:51:15;;;;;;;6.65;2.38;;;15.30;99.90;;;;;;5063194;28;20028;-72
2021/07/31 05:53:41;;;;;;;6.20;2.17;;;15.40;99.90;;;;;;5046913;28;20037;-72
2021/07/31 05:56:11;;;;;;;6.88;2.30;;;15.40;99.90;;;;;;5046798;28;20051;-72
2021/07/31 05:58:37;;;;;;;4.93;2.40;;;15.50;99.90;;;;;;5061448;28;20052;-72
2021/07/31 06:01:08;;;;;;;7.72;2.58;;;15.50;99.90;;;;;;5046416;28;20044;-72
2021/07/31 06:03:34;;;;;;;4.03;1.73;;;15.50;99.90;;;;;;5046426;28;20024;-72
2021/07/31 06:06:00;;;;;;;6.28;2.25;;;15.60;99.90;;;;;;5062373;28;20067;-72
2021/07/31 06:08:30;;;;;;;5.82;2.20;;;15.60;99.90;;;;;;5027102;28;20112;-72
2021/07/31 06:11:03;;;;;;;7.15;2.50;;;15.70;99.90;;;;;;5061881;28;21013;-72
2021/07/31 06:13:32;;;;;;;6.75;2.50;;;15.70;99.90;;;;;;5045657;28;20025;-72
2021/07/31 06:16:03;;;;;;;6.45;2.40;;;15.80;99.90;;;;;;5047715;28;20036;-72
2021/07/31 06:18:31;;;;;;;6.18;2.58;;;15.80;99.90;;;;;;5062308;28;20037;-73
2021/07/31 06:20:56;;;;;;;5.93;2.50;;;15.80;99.90;;;;;;5047295;28;20540;-72
2021/07/31 06:23:24;;;;;;;5.85;2.30;;;15.90;99.90;;;;;;5046228;28;20029;-72
2021/07/31 06:25:52;;;;;;;6.10;2.35;;;15.90;99.90;;;;;;5046646;28;20109;-71
2021/07/31 06:28:23;;;;;;;5.68;2.47;;;15.90;99.90;;;;;;5028375;28;20033;-72
2021/07/31 06:30:48;;;;;;;4.35;2.30;;;16.00;99.90;;;;;;5046858;28;20036;-72
2021/07/31 06:33:14;;;;;;;6.55;2.50;;;16.00;99.90;;;;;;5046299;28;20040;-72
2021/07/31 06:35:39;;;;;;;4.50;2.35;;;16.10;99.90;;;;;;5046160;28;20029;-72
2021/07/31 06:38:05;;;;;;;4.57;2.40;;;16.20;99.90;;;;;;5048022;28;20043;-72
2021/07/31 06:40:31;;;;;;;5.45;2.25;;;16.20;99.90;;;;;;5012909;28;20110;-72
2021/07/31 06:42:58;;;;;;;5.65;2.50;;;16.20;99.90;;;;;;5045300;28;20041;-72
2021/07/31 06:45:27;;;;;;;7.13;2.67;;;16.20;99.90;;;;;;5046446;28;20200;-72
2021/07/31 06:47:55;;;;;;;5.55;2.30;;;16.20;99.90;;;;;;5050650;28;20025;-73
2021/07/31 06:50:23;;;;;;;5.82;2.42;;;16.30;99.90;;;;;;5030285;28;20047;-73
2021/07/31 06:52:48;;;;;;;7.53;2.53;;;16.30;99.90;;;;;;5031052;28;20953;-71
2021/07/31 06:55:14;;;;;;;4.95;2.40;;;16.40;99.90;;;;;;5030703;28;20036;-73
2021/07/31 06:57:42;;;;;;;4.88;2.30;;;16.40;99.90;;;;;;5047978;28;20032;-72
2021/07/31 07:00:11;;;;;;;6.05;2.25;;;16.50;99.90;;;;;;5047607;28;20118;-72
2021/07/31 07:02:36;;;;;;;5.80;2.35;;;16.50;99.90;;;;;;5047639;28;20036;-72
2021/07/31 07:05:02;;;;;;;5.13;2.30;;;16.50;99.90;;;;;;5047884;28;20025;-72
2021/07/31 07:07:30;;;;;;;7.32;2.63;;;16.60;99.90;;;;;;5048036;28;20468;-72
2021/07/31 07:09:58;;;;;;;5.97;2.22;;;16.60;99.90;;;;;;5047934;28;20033;-70
2021/07/31 07:12:24;;;;;;;7.03;3.03;;;16.70;98.50;;;;;;5030845;28;20174;-69
2021/07/31 07:14:49;;;;;;;5.85;2.55;;;16.70;99.50;;;;;;5029408;28;20451;-69
2021/07/31 07:17:15;;;;;;;5.90;2.60;;;16.80;99.80;;;;;;5048404;28;20094;-72
2021/07/31 07:19:41;;;;;;;6.18;2.80;;;16.90;99.90;;;;;;5031597;28;20443;-72
2021/07/31 07:22:09;;;;;;;7.47;3.00;;;16.90;99.50;;;;;;5045290;28;20033;-73
2021/07/31 07:24:35;;;;;;;6.40;2.50;;;17.00;99.90;;;;;;5048162;28;20025;-72
2021/07/31 07:27:01;;;;;;;5.60;2.35;;;17.00;97.60;;;;;;5047402;28;20091;-73
2021/07/31 07:29:27;;;;;;;5.00;2.40;;;17.10;99.30;;;;;;5030496;28;20028;-73
2021/07/31 07:31:54;;;;;;;5.38;2.33;;;17.20;99.90;;;;;;5047039;28;20131;-73
2021/07/31 07:34:20;;;;;;;5.25;2.15;;;17.30;99.90;;;;;;5029192;28;20595;-72
2021/07/31 07:36:45;;;;;;;5.90;2.50;;;17.40;96.50;;;;;;5047521;28;20035;-73
2021/07/31 07:39:11;;;;;;;6.45;2.60;;;17.40;95.70;;;;;;5047663;28;20042;-74
2021/07/31 07:41:41;;;;;;;4.97;2.35;;;17.50;94.80;;;;;;5031144;28;20052;-73
2021/07/31 07:44:09;;;;;;;3.88;2.20;;;17.60;93.70;;;;;;5028058;28;20036;-73
2021/07/31 07:46:35;;;;;;;5.57;2.30;;;17.60;95.30;;;;;;5048474;28;21867;-73
2021/07/31 07:49:03;;;;;;;5.25;2.17;;;17.70;93.40;;;;;;5047425;28;20029;-74
2021/07/31 07:51:31;;;;;;;5.97;2.53;;;17.80;91.90;;;;;;5047067;28;20037;-72
2021/07/31 07:53:56;;;;;;;5.95;2.50;;;17.90;92.20;;;;;;5048011;28;20060;-73
2021/07/31 07:56:22;;;;;;;5.20;2.40;;;17.90;90.20;;;;;;5064156;28;20438;-73
2021/07/31 07:58:53;;;;;;;5.18;2.40;;;18.10;90.70;;;;;;5062771;28;20426;-73
2021/07/31 08:01:21;;;;;;;4.88;2.30;;;18.30;90.50;;;;;;5047204;28;20367;-73
2021/07/31 08:03:49;;;;;;;4.82;2.20;;;18.50;93.40;;;;;;5027732;28;20021;-72
2021/07/31 08:06:18;;;;;;;4.32;2.40;;;18.40;86.30;;;;;;5030454;28;20068;-73
2021/07/31 08:08:43;;;;;;;5.53;2.50;;;18.60;91.20;;;;;;5047091;28;20120;-73
2021/07/31 08:11:12;;;;;;;6.43;2.45;;;18.70;90.30;;;;;;5062266;28;20070;-69
2021/07/31 08:13:37;;;;;;;6.05;3.10;;;18.80;90.50;;;;;;5034421;28;20033;-71
2021/07/31 08:16:03;;;;;;;5.85;2.90;;;18.80;87.40;;;;;;5047489;28;20703;-73
2021/07/31 08:18:29;;;;;;;5.47;2.42;;;18.90;88.20;;;;;;5029753;28;20128;-71
2021/07/31 08:20:54;;;;;;;5.00;2.67;;;18.90;85.40;;;;;;5045936;28;20056;-71
2021/07/31 08:23:22;;;;;;;7.38;2.53;;;18.90;88.70;;;;;;5028920;28;20453;-71
2021/07/31 08:25:48;;;;;;;5.82;2.35;;;19.00;87.00;;;;;;5046377;28;20029;-70
2021/07/31 08:28:14;;;;;;;6.00;2.40;;;19.00;87.60;;;;;;5046311;28;20347;-73
2021/07/31 08:30:39;;;;;;;3.97;2.20;;;19.10;87.90;;;;;;5045513;28;20076;-72
2021/07/31 08:33:05;;;;;;;6.07;2.30;;;19.20;89.00;;;;;;5047492;28;20033;-72
2021/07/31 08:35:31;;;;;;;5.32;2.42;;;19.10;83.10;;;;;;5029859;28;20152;-72
2021/07/31 08:37:59;;;;;;;5.30;2.40;;;19.20;83.10;;;;;;5034236;28;20033;-73
2021/07/31 08:40:25;;;;;;;6.38;2.55;;;19.20;80.90;;;;;;5029623;28;20091;-72
2021/07/31 08:42:51;;;;;;;5.30;2.38;;;19.20;81.80;;;;;;5028806;28;20036;-72
2021/07/31 08:45:18;;;;;;;6.53;2.40;;;19.20;86.30;;;;;;5025506;28;20033;-71
2021/07/31 08:47:47;;;;;;;6.13;2.65;;;19.20;84.70;;;;;;5062208;28;20489;-71
2021/07/31 08:50:15;;;;;;;5.00;2.58;;;19.30;85.50;;;;;;5027337;28;20166;-71
2021/07/31 08:52:42;;;;;;;5.93;2.30;;;19.20;83.60;;;;;;5061290;28;20182;-72
2021/07/31 08:55:11;;;;;;;5.00;2.55;;;19.10;81.20;;;;;;5029517;28;20025;-73
2021/07/31 08:57:38;;;;;;;5.85;2.83;;;19.20;82.80;;;;;;5027668;28;20040;-68
2021/07/31 09:00:05;;;;;;;4.82;2.40;;;19.10;83.10;;;;;;5045632;28;20518;-69
2021/07/31 09:02:51;;;;;;;4.15;2.50;;;19.30;85.70;;;;;;5045936;28;20032;-72
2021/07/31 09:05:32;;;;;;;4.88;2.70;;;19.30;84.40;;;;;;5027172;28;20510;-71
2021/07/31 09:08:08;;;;;;;4.82;2.50;;;19.30;80.20;;;;;;5045337;28;20055;-72
2021/07/31 09:10:44;;;;;;;4.68;2.40;;;19.40;82.70;;;;;;5045732;28;20036;-72
2021/07/31 09:13:14;;;;;;;6.63;2.47;;;19.50;86.80;;;;;;5023408;28;20098;-71
2021/07/31 09:15:48;;;;;;;5.20;2.60;;;19.50;80.50;;;;;;5045740;28;20098;-73
2021/07/31 09:18:25;;;;;;;4.88;2.22;;;19.60;81.70;;;;;;5044657;28;20029;-72
2021/07/31 09:21:12;;;;;;;5.05;2.60;;;19.70;80.90;;;;;;5025349;28;20124;-72
2021/07/31 09:23:47;;;;;;;4.57;2.30;;;19.70;80.80;;;;;;5045735;28;20032;-72
2021/07/31 09:26:18;;;;;;;6.05;2.33;;;19.70;79.30;;;;;;5046328;28;20175;-72
2021/07/31 09:28:59;;;;;;;5.65;2.50;;;19.90;83.50;;;;;;5045267;28;20044;-72
2021/07/31 09:31:25;;;;;;;4.70;2.30;;;19.70;76.10;;;;;;5045214;28;20040;-72
2021/07/31 09:33:50;;;;;;;4.72;2.33;;;19.50;75.90;;;;;;5061057;28;20369;-71
2021/07/31 09:36:16;;;;;;;6.07;2.30;;;19.60;78.60;;;;;;5045364;28;20035;-71
2021/07/31 09:38:45;;;;;;;4.07;2.10;;;19.60;80.00;;;;;;5061755;28;20033;-71
2021/07/31 09:41:20;;;;;;;4.25;2.00;;;19.60;76.70;;;;;;5027070;28;20116;-71
2021/07/31 09:44:06;;;;;;;5.32;2.13;;;19.60;76.70;;;;;;5026542;28;20359;-72
2021/07/31 09:46:35;;;;;;;4.65;2.15;;;19.70;76.00;;;;;;5043928;28;20024;-73
2021/07/31 09:49:02;;;;;;;4.90;2.30;;;19.80;79.90;;;;;;5045558;28;20060;-73
2021/07/31 09:51:37;;;;;;;4.68;2.30;;;19.90;75.90;;;;;;5043993;28;20067;-72
2021/07/31 09:54:06;;;;;;;4.97;2.20;;;19.90;77.10;;;;;;5043868;28;20126;-72
2021/07/31 09:56:40;;;;;;;4.80;2.30;;;20.20;83.10;;;;;;5027738;28;20033;-73
2021/07/31 09:59:06;;;;;;;4.45;2.20;;;20.20;76.60;;;;;;5061276;28;20059;-72
2021/07/31 10:01:34;;;;;;;4.25;2.00;;;20.40;83.40;;;;;;5027420;28;20900;-71
2021/07/31 10:04:01;;;;;;;3.75;2.10;;;20.30;74.40;;;;;;5060671;28;20025;-72
2021/07/31 10:06:26;;;;;;;4.40;1.90;;;20.50;79.10;;;;;;5027737;28;20025;-72
2021/07/31 10:08:52;;;;;;;3.92;2.00;;;20.70;76.30;;;;;;5044729;28;20572;-72
2021/07/31 10:11:18;;;;;;;5.25;1.90;;;20.60;70.60;;;;;;5044712;28;20079;-71
2021/07/31 10:13:44;;;;;;;4.97;2.08;;;20.60;74.70;;;;;;5028905;28;20036;-72
2021/07/31 10:16:12;;;;;;;5.07;2.00;;;20.60;76.40;;;;;;5046117;28;20416;-72
2021/07/31 10:18:38;;;;;;;2.95;1.73;;;20.70;80.10;;;;;;5011056;28;20183;-72
2021/07/31 10:21:10;;;;;;;3.70;2.00;;;20.60;76.60;;;;;;5002535;28;20025;-73
2021/07/31 10:23:55;;;;;;;5.35;2.00;;;20.70;74.30;;;;;;5065239;28;20805;-73
2021/07/31 10:26:20;;;;;;;6.10;1.80;;;20.50;69.50;;;;;;5048686;28;20313;-73
2021/07/31 10:28:46;;;;;;;3.92;1.80;;;20.50;71.30;;;;;;5066483;28;20116;-73
2021/07/31 10:31:41;;;;;;;3.42;1.67;;;20.70;71.70;;;;;;5050736;28;20028;-72
2021/07/31 10:34:07;;;;;;;4.28;1.90;;;20.70;73.60;;;;;;5018904;28;20033;-72
2021/07/31 10:36:38;;;;;;;4.00;1.92;;;20.50;70.50;;;;;;5028870;28;20033;-72
2021/07/31 10:39:26;;;;;;;3.90;1.75;;;20.80;75.50;;;;;;5016289;28;20033;-72
2021/07/31 10:41:59;;;;;;;5.18;2.10;;;21.00;70.50;;;;;;5049374;28;20028;-72
2021/07/31 10:44:27;;;;;;;5.18;2.05;;;21.00;69.40;;;;;;5030769;28;20616;-73
2021/07/31 10:47:20;;;;;;;3.35;1.65;;;21.00;69.00;;;;;;5049311;28;20540;-73
2021/07/31 10:49:49;;;;;;;3.88;1.73;;;21.00;66.00;;;;;;5049518;28;20110;-73
2021/07/31 10:52:49;;;;;;;4.50;1.65;;;20.90;70.20;;;;;;5047473;28;20044;-73
2021/07/31 10:55:17;;;;;;;3.50;1.80;;;21.00;68.70;;;;;;5048359;28;20628;-72
2021/07/31 10:57:56;;;;;;;7.20;4.78;;;21.10;73.00;;;;;;5048466;28;20131;-67
2021/07/31 11:00:25;;;;;;;4.15;1.80;;;21.20;71.50;;;;;;5047093;28;20033;-67
2021/07/31 11:02:51;;;;;;;3.75;2.00;;;21.30;71.00;;;;;;5047240;28;20650;-71
2021/07/31 11:05:17;;;;;;;3.30;1.80;;;21.40;72.60;;;;;;5030137;28;20028;-71
2021/07/31 11:07:58;;;;;;;4.60;2.00;;;21.30;67.90;;;;;;5030439;28;20473;-72
2021/07/31 11:10:39;;;;;;;2.43;1.70;;;21.30;66.00;;;;;;5048058;28;20856;-73
2021/07/31 11:13:07;;;;;;;3.85;2.00;;;21.40;68.50;;;;;;5047849;28;20304;-73
2021/07/31 11:15:35;;;;;;;5.03;1.92;;;21.50;71.50;;;;;;5030711;28;20036;-72
2021/07/31 11:18:01;;;;;;;4.13;1.80;;;21.60;66.00;;;;;;5048183;28;20706;-71
2021/07/31 11:20:35;;;;;;;5.40;2.13;;;21.70;68.60;;;;;;5030175;28;20085;-73
2021/07/31 11:23:07;;;;;;;4.25;2.00;;;21.80;70.90;;;;;;5045421;28;20210;-72
2021/07/31 11:25:33;;;;;;;4.22;2.00;;;22.00;68.30;;;;;;5014863;28;20031;-73
2021/07/31 11:28:08;;;;;;;4.25;2.60;;;21.90;65.70;;;;;;5028833;28;20038;-69
2021/07/31 11:30:46;;;;;;;2.92;1.85;;;21.80;66.10;;;;;;5064338;28;21917;-69
2021/07/31 11:33:35;;;;;;;5.15;1.98;;;21.80;64.70;;;;;;5031685;28;20402;-73
2021/07/31 11:36:10;;;;;;;3.90;2.00;;;21.80;67.80;;;;;;5033653;28;20071;-73
2021/07/31 11:38:42;;;;;;;5.55;2.00;;;22.00;69.30;;;;;;5045439;28;20025;-73
2021/07/31 11:41:09;;;;;;;4.03;2.00;;;22.10;69.60;;;;;;5031591;28;20036;-73
2021/07/31 11:43:49;;;;;;;4.18;1.92;;;22.30;71.60;;;;;;5028857;28;20044;-72
2021/07/31 11:47:00;;;;;;;4.85;2.08;;;22.30;67.10;;;;;;5064237;28;20029;-72
2021/07/31 11:49:31;;;;;;;5.18;1.90;;;22.30;67.60;;;;;;5044772;28;20138;-72
2021/07/31 11:52:01;;;;;;;4.10;2.00;;;22.40;72.30;;;;;;5011925;28;20033;-73
2021/07/31 11:54:27;;;;;;;4.68;2.00;;;22.50;70.10;;;;;;5029157;28;20822;-71
2021/07/31 11:56:53;;;;;;;3.67;1.90;;;22.40;66.40;;;;;;5062898;28;20040;-72
2021/07/31 11:59:31;;;;;;;3.70;1.90;;;22.60;68.90;;;;;;5047195;28;20044;-74
2021/07/31 12:01:57;;;;;;;5.00;2.10;;;22.80;64.70;;;;;;5046707;28;20557;-72
2021/07/31 12:04:51;;;;;;;4.13;2.00;;;22.70;64.90;;;;;;5048445;28;20163;-72
2021/07/31 12:07:25;;;;;;;3.88;2.10;;;22.80;68.60;;;;;;5013277;28;20038;-74
2021/07/31 12:10:01;;;;;;;3.95;2.13;;;22.30;62.90;;;;;;5031038;28;20377;-72
2021/07/31 12:12:34;;;;;;;4.55;2.08;;;22.50;67.20;;;;;;5029496;28;20029;-72
2021/07/31 12:15:11;;;;;;;4.78;1.95;;;22.50;66.80;;;;;;5036209;28;20044;-72
2021/07/31 12:17:42;;;;;;;4.00;1.95;;;22.40;66.10;;;;;;5046705;28;20036;-73
2021/07/31 12:20:08;;;;;;;5.00;2.00;;;22.50;67.90;;;;;;5046690;28;20451;-73
2021/07/31 12:22:35;;;;;;;4.22;2.08;;;22.50;63.80;;;;;;5015640;28;20025;-72
2021/07/31 12:25:17;;;;;;;4.88;2.15;;;22.50;65.90;;;;;;5028209;28;20462;-73
2021/07/31 12:28:12;;;;;;;4.50;2.22;;;22.70;66.50;;;;;;5046278;28;20670;-72
2021/07/31 12:30:44;;;;;;;3.92;1.90;;;22.70;68.80;;;;;;5046019;28;20040;-73
2021/07/31 12:33:21;;;;;;;4.22;2.10;;;22.60;68.80;;;;;;5046937;28;20028;-72
2021/07/31 12:35:47;;;;;;;5.93;2.30;;;22.80;69.30;;;;;;5028219;28;20037;-72
2021/07/31 12:38:23;;;;;;;4.88;2.00;;;22.20;63.60;;;;;;5029132;28;20036;-73
2021/07/31 12:40:59;;;;;;;4.93;2.10;;;22.10;64.70;;;;;;5060623;28;20039;-72
2021/07/31 12:43:26;;;;;;;4.57;2.00;;;22.20;66.40;;;;;;5046112;28;20028;-72
2021/07/31 12:45:59;;;;;;;4.20;2.00;;;22.10;63.70;;;;;;5062371;28;20036;-72
2021/07/31 12:48:29;;;;;;;5.05;2.20;;;21.90;65.20;;;;;;5046784;28;20744;-73
2021/07/31 12:50:57;;;;;;;5.07;2.30;;;22.10;66.20;;;;;;5030120;28;20823;-72
2021/07/31 12:53:24;;;;;;;4.10;2.00;;;22.30;67.30;;;;;;5046265;28;20040;-73
2021/07/31 12:55:53;;;;;;;5.45;2.10;;;22.30;67.20;;;;;;5028157;28;20033;-69